Phoenix, AZ (85068)

9:32 PM MST on September 04, 2015 (GMT -0700)
Arroyo Rojo | | Change Station
CLOSE
Current Station
Personal Weather Station
Location: Phoenix, AZ
Elevation: 1476 ft
Nearby Weather Stations

Elev 1476 ft 33.68 °N, 112.06 °W | Updated 1 minute ago

Scattered Clouds
Scattered Clouds
83.1 °F
Feels Like 84 °F
N
0.0
Wind Variable Wind from North
Gusts 0.0 mph

Today
High -- | Low -- °F
--% Chance of Precip.
Yesterday
High -- | Low -- °F
Precip. -- in
6:04 AM 6:49 PM
Waning Gibbous, 52% visible
Pressure 29.77 in
Visibility 10.0 miles
Clouds Few 3400 ft
Scattered Clouds 10000 ft
Heat Index 84 °F
Dew Point 62 °F
Humidity 49%
Rainfall 0.00 in
Snow Depth Not available.
UV 0 out of 12
Pollen 3.90 out of 12
Air Quality Not available.
Flu Activity Not available.
METAR KDVT 050353Z 25009KT 10SM FEW034 SCT100 29/15 A2984 RMK AO2 RAB26E50 SLP081 P0000 T02890150
Pressure 29.77 in
Visibility 10.0 miles
Clouds Few 3400 ft
Scattered Clouds 10000 ft
Heat Index 84 °F
Dew Point 62 °F
Humidity 49%
Rainfall 0.00 in
Snow Depth Not available.
UV 0 out of 12
Pollen 3.90 out of 12
Air Quality Not available.
Flu Activity Not available.
METAR KDVT 050353Z 25009KT 10SM FEW034 SCT100 29/15 A2984 RMK AO2 RAB26E50 SLP081 P0000 T02890150

10-Day Weather Forecast

×

Almanac

Astronomy

Sep. 04, 2015 Rise Set
Actual Time
Civil Twilight
Nautical Twilight
Astronomical Twilight
Moon
Length of Visible Light
Length of Day
Tomorrow will be .
, % of the Moon is Illuminated

Today's Extremes

State Highs State Lows

Community

WunderPhotos

Upload Photos

1,852,425 photos uploaded!

WunderBlogs® & News

Nearby

Air Quality

  Air Quality AQ Index Pollutant
Not available.

Snow Depth

Station Depth Elevation

Earthquake Activity

City Distance Mag. Time & Date
Minimum magnitude displayed is 2.5.

Coastal Water Temperatures

Place Temperature

Stations

Nearby Weather Stations

Station Location Temp. Windchill Dew Point Humidity Wind Precip. Elev Updated Type